Argyle, Wisconsin
Current Conditions -  °F | °C
As of 12:35 PM on Friday 24 Oct 2014 (Local Time) from KEFT Reporting Station
Haze Haze  
Wind Chill: 11°   Ceiling: 300
Heat Index: 11°   Visibility: 3mi
Dew Point: 11°   Wind: 9mph
Humidity: 100%   Direction: 210°SSW
Pressure: 30.02"   Gusts: NA
Location:  42.7°N, 89.87°W
Report Text: KEFT 241735Z AUTO 21008KT 3SM BR OVC003 11/11 A3002 RMK AO2
Loading
Personal Weather Stations






























Interactive Weather Map
Tropical Storm Tracking
New forecast layout! Learn more

10-Day Weather Forecast

Advertisements
Track Severe Weather on mobile